Time;durP1;ratioP1;P1;durP2;ratioP2;P2;SDS_P1;SDS_P2;PMS_P1;PMS_P2;Temp;Humidity;BMP_temperature;BMP_pressure;BME280_temperature;BME280_humidity;BME280_pressure;Samples;Min_cycle;Max_cycle;Signal;HPM_P1;HPM_P2
2021/11/30 00:01:05;;;;;;;6.28;5.13;;;;;;;;;;5107750;28;20024;-77
2021/11/30 00:03:31;;;;;;;6.47;5.38;;;;;;;;;;5107875;28;20103;-79
2021/11/30 00:05:57;;;;;;;7.75;5.07;;;;;;;;;;5108157;28;20028;-79
2021/11/30 00:08:27;;;;;;;4.70;4.13;;;;;;;;;;5107003;28;20024;-79
2021/11/30 00:10:54;;;;;;;4.25;3.85;;;;;;;;;;5108573;28;20484;-78
2021/11/30 00:13:21;;;;;;;5.35;3.63;;;;;;;;;;5105242;28;20074;-78
2021/11/30 00:15:48;;;;;;;4.10;3.70;;;;;;;;;;5107916;28;20039;-77
2021/11/30 00:18:15;;;;;;;4.20;3.45;;;;;;;;;;5107956;28;20024;-77
2021/11/30 00:20:42;;;;;;;4.97;4.30;;;;;;;;;;5106675;28;20027;-78
2021/11/30 00:23:08;;;;;;;3.97;3.25;;;;;;;;;;5107894;28;20020;-78
2021/11/30 00:25:35;;;;;;;4.43;3.30;;;;;;;;;;5107247;28;20024;-78
2021/11/30 00:28:01;;;;;;;4.28;3.70;;;;;;;;;;5107427;28;20099;-78
2021/11/30 00:30:27;;;;;;;4.30;3.78;;;;;;;;;;5107841;28;20024;-78
2021/11/30 00:32:54;;;;;;;4.53;3.83;;;;;;;;;;5106642;28;20025;-76
2021/11/30 00:35:23;;;;;;;5.18;3.85;;;;;;;;;;5105949;28;20051;-79
2021/11/30 00:37:50;;;;;;;4.85;4.35;;;;;;;;;;5100694;28;20040;-78
2021/11/30 00:40:16;;;;;;;5.63;3.80;;;;;;;;;;5089890;28;20028;-78
2021/11/30 00:42:43;;;;;;;6.55;4.50;;;;;;;;;;5107643;28;20020;-77
2021/11/30 00:45:10;;;;;;;5.10;4.15;;;;;;;;;;5107361;28;20023;-75
2021/11/30 00:47:44;;;;;;;5.40;4.07;;;;;;;;;;5107632;28;20035;-77
2021/11/30 00:50:11;;;;;;;9.37;4.57;;;;;;;;;;5098112;28;20082;-77
2021/11/30 00:52:37;;;;;;;5.05;4.32;;;;;;;;;;5085807;28;20274;-78
2021/11/30 00:55:04;;;;;;;5.65;4.43;;;;;;;;;;5085549;28;20028;-78
2021/11/30 00:57:30;;;;;;;5.70;4.40;;;;;;;;;;5086582;28;20379;-78
2021/11/30 00:59:56;;;;;;;5.00;4.50;;;;;;;;;;5094329;28;20016;-77
2021/11/30 01:02:22;;;;;;;5.85;4.20;;;;;;;;;;5094182;28;20028;-78
2021/11/30 01:04:48;;;;;;;3.33;3.03;;;;;;;;;;5085640;28;20021;-76
2021/11/30 01:07:15;;;;;;;4.72;3.63;;;;;;;;;;5085538;28;20033;-77
2021/11/30 01:09:42;;;;;;;3.70;3.30;;;;;;;;;;5086536;28;20020;-77
2021/11/30 01:12:09;;;;;;;4.25;3.40;;;;;;;;;;5086258;28;20028;-77
2021/11/30 01:14:35;;;;;;;4.00;3.55;;;;;;;;;;5087116;28;20080;-75
2021/11/30 01:17:01;;;;;;;5.22;3.63;;;;;;;;;;5086624;28;20055;-78
2021/11/30 01:19:27;;;;;;;6.63;3.88;;;;;;;;;;5086983;28;20044;-77
2021/11/30 01:21:53;;;;;;;5.68;4.10;;;;;;;;;;5091295;28;20016;-77
2021/11/30 01:24:20;;;;;;;5.60;3.60;;;;;;;;;;5105385;28;20028;-78
2021/11/30 01:26:46;;;;;;;6.07;4.43;;;;;;;;;;5107104;28;20091;-77
2021/11/30 01:29:12;;;;;;;6.40;3.78;;;;;;;;;;5107618;28;20024;-78
2021/11/30 01:31:38;;;;;;;3.85;3.22;;;;;;;;;;5106229;28;20024;-78
2021/11/30 01:34:05;;;;;;;4.72;3.70;;;;;;;;;;5107096;28;20032;-78
2021/11/30 01:36:31;;;;;;;4.43;3.70;;;;;;;;;;5107332;28;20104;-79
2021/11/30 01:39:00;;;;;;;4.80;3.80;;;;;;;;;;5106365;28;20103;-78
2021/11/30 01:41:28;;;;;;;5.53;4.03;;;;;;;;;;5105871;28;20020;-77
2021/11/30 01:43:56;;;;;;;4.07;3.60;;;;;;;;;;5106253;28;20023;-79
2021/11/30 01:46:39;;;;;;;4.18;3.35;;;;;;;;;;5105176;28;20035;-77
2021/11/30 01:51:38;;;;;;;3.97;3.58;;;;;;;;;;5106640;28;20054;-77
2021/11/30 01:54:04;;;;;;;5.53;4.28;;;;;;;;;;5106998;28;20047;-78
2021/11/30 01:56:30;;;;;;;5.78;5.18;;;;;;;;;;5104853;28;20093;-79
2021/11/30 01:58:57;;;;;;;5.53;4.28;;;;;;;;;;5105024;28;20035;-78
2021/11/30 02:01:23;;;;;;;4.50;4.10;;;;;;;;;;5105939;28;20019;-79
2021/11/30 02:03:49;;;;;;;5.65;4.95;;;;;;;;;;5106882;28;20026;-77
2021/11/30 02:06:16;;;;;;;7.25;4.40;;;;;;;;;;5106438;28;20020;-78
2021/11/30 02:08:42;;;;;;;6.15;4.18;;;;;;;;;;5106477;28;20024;-77
2021/11/30 02:11:08;;;;;;;4.43;4.03;;;;;;;;;;5105255;28;20116;-78
2021/11/30 02:13:34;;;;;;;7.97;4.10;;;;;;;;;;5105816;28;20030;-80
2021/11/30 02:16:02;;;;;;;4.82;4.30;;;;;;;;;;5109285;28;20055;-77
2021/11/30 02:18:29;;;;;;;5.88;4.95;;;;;;;;;;5122335;28;20024;-76
2021/11/30 02:20:57;;;;;;;6.30;5.18;;;;;;;;;;5115517;28;20092;-76
2021/11/30 02:23:32;;;;;;;6.13;5.53;;;;;;;;;;5110470;28;20016;-78
2021/11/30 02:25:59;;;;;;;7.78;5.55;;;;;;;;;;5111234;28;20028;-77
2021/11/30 02:28:25;;;;;;;6.43;5.57;;;;;;;;;;5110524;28;20053;-77
2021/11/30 02:30:51;;;;;;;7.57;5.80;;;;;;;;;;5110230;28;20466;-78
2021/11/30 02:33:17;;;;;;;6.13;4.88;;;;;;;;;;5109746;28;20054;-76
2021/11/30 02:35:44;;;;;;;7.85;5.38;;;;;;;;;;5108656;28;20061;-78
2021/11/30 02:38:10;;;;;;;6.22;5.40;;;;;;;;;;5110273;28;20036;-79
2021/11/30 02:40:37;;;;;;;6.25;5.22;;;;;;;;;;5122012;28;20027;-76
2021/11/30 02:43:04;;;;;;;5.32;4.72;;;;;;;;;;5130476;28;20049;-79
2021/11/30 02:45:33;;;;;;;5.85;4.78;;;;;;;;;;5130819;28;20087;-80
2021/11/30 02:47:59;;;;;;;7.10;5.53;;;;;;;;;;5130405;28;20104;-77
2021/11/30 02:50:27;;;;;;;5.95;5.20;;;;;;;;;;5130591;28;20031;-76
2021/11/30 02:52:54;;;;;;;6.47;4.70;;;;;;;;;;5129786;28;20074;-76
2021/11/30 02:55:22;;;;;;;7.15;5.20;;;;;;;;;;5111638;28;20024;-79
2021/11/30 02:57:48;;;;;;;5.15;4.13;;;;;;;;;;5116019;28;20023;-77
2021/11/30 03:00:14;;;;;;;4.90;4.00;;;;;;;;;;5130246;28;20023;-77
2021/11/30 03:02:40;;;;;;;4.15;3.65;;;;;;;;;;5129120;28;20051;-77
2021/11/30 03:05:06;;;;;;;4.97;3.65;;;;;;;;;;5130223;28;20035;-77
2021/11/30 03:07:38;;;;;;;5.45;4.18;;;;;;;;;;5128706;28;20016;-77
2021/11/30 03:10:23;;;;;;;4.15;3.70;;;;;;;;;;5128339;28;20024;-78
2021/11/30 03:12:50;;;;;;;4.05;3.50;;;;;;;;;;5128724;28;20127;-77
2021/11/30 03:15:17;;;;;;;4.65;3.85;;;;;;;;;;5128661;28;20031;-76
2021/11/30 03:17:44;;;;;;;4.18;3.70;;;;;;;;;;5130322;28;20020;-77
2021/11/30 03:20:17;;;;;;;4.22;3.55;;;;;;;;;;5129044;28;20153;-77
2021/11/30 03:22:45;;;;;;;4.20;3.42;;;;;;;;;;5129667;28;20019;-76
2021/11/30 03:25:12;;;;;;;4.15;3.30;;;;;;;;;;5127595;28;20086;-77
2021/11/30 03:27:38;;;;;;;3.80;3.45;;;;;;;;;;5128057;28;20081;-77
2021/11/30 03:30:06;;;;;;;4.53;3.20;;;;;;;;;;5129131;28;20023;-79
2021/11/30 03:35:17;;;;;;;3.00;2.45;;;;;;;;;;5111167;28;20040;-78
2021/11/30 03:37:43;;;;;;;3.08;2.30;;;;;;;;;;5128761;28;20035;-79
2021/11/30 03:40:11;;;;;;;3.00;2.45;;;;;;;;;;5128025;28;20114;-76
2021/11/30 03:42:38;;;;;;;2.95;2.30;;;;;;;;;;5129136;28;20037;-77
2021/11/30 03:45:04;;;;;;;3.10;2.35;;;;;;;;;;5129489;28;20019;-78
2021/11/30 03:47:30;;;;;;;2.67;2.30;;;;;;;;;;5129505;28;20028;-77
2021/11/30 03:49:56;;;;;;;3.05;2.40;;;;;;;;;;5127932;28;20019;-80
2021/11/30 03:52:22;;;;;;;3.75;3.35;;;;;;;;;;5127571;28;20081;-78
2021/11/30 03:54:51;;;;;;;5.60;3.58;;;;;;;;;;5143840;27;20619;-76
2021/11/30 03:57:18;;;;;;;5.18;4.40;;;;;;;;;;5150676;27;20023;-77
2021/11/30 03:59:44;;;;;;;7.72;4.75;;;;;;;;;;5149310;27;20470;-77
2021/11/30 04:02:13;;;;;;;6.32;4.82;;;;;;;;;;5149792;27;20024;-74
2021/11/30 04:04:42;;;;;;;6.15;4.07;;;;;;;;;;5149142;27;20469;-78
2021/11/30 04:07:09;;;;;;;4.65;4.10;;;;;;;;;;5148979;27;20031;-78
2021/11/30 04:09:35;;;;;;;4.63;4.13;;;;;;;;;;5131200;27;20019;-77
2021/11/30 04:12:02;;;;;;;5.45;4.40;;;;;;;;;;5141311;27;20512;-77
2021/11/30 04:14:28;;;;;;;4.28;3.88;;;;;;;;;;5127583;28;20023;-77
2021/11/30 04:16:54;;;;;;;5.43;3.88;;;;;;;;;;5128957;28;20028;-79
2021/11/30 04:19:20;;;;;;;4.53;4.13;;;;;;;;;;5111086;28;20397;-78
2021/11/30 04:21:46;;;;;;;3.72;2.88;;;;;;;;;;5129017;28;20390;-76
2021/11/30 04:24:15;;;;;;;2.78;2.50;;;;;;;;;;5128852;28;20023;-77
2021/11/30 04:26:41;;;;;;;4.28;3.00;;;;;;;;;;5128713;28;20023;-77
2021/11/30 04:29:07;;;;;;;2.50;2.28;;;;;;;;;;5128752;28;20027;-78
2021/11/30 04:31:35;;;;;;;3.10;2.33;;;;;;;;;;5110019;28;20031;-77
2021/11/30 04:34:03;;;;;;;3.40;3.10;;;;;;;;;;5110351;28;20091;-77
2021/11/30 04:36:29;;;;;;;3.65;3.20;;;;;;;;;;5128001;28;20057;-78
2021/11/30 04:38:56;;;;;;;3.88;3.10;;;;;;;;;;5110195;28;20456;-77
2021/11/30 04:41:23;;;;;;;3.95;3.03;;;;;;;;;;5109911;28;20023;-78
2021/11/30 04:43:49;;;;;;;3.22;2.70;;;;;;;;;;5110174;28;20115;-78
2021/11/30 04:46:23;;;;;;;3.65;2.80;;;;;;;;;;5127552;28;20035;-77
2021/11/30 04:49:05;;;;;;;2.58;2.30;;;;;;;;;;5127474;28;20106;-77
2021/11/30 04:51:32;;;;;;;4.43;2.65;;;;;;;;;;5127636;28;20049;-77
2021/11/30 04:53:59;;;;;;;3.10;2.33;;;;;;;;;;5128115;28;20027;-78
2021/11/30 04:56:25;;;;;;;3.53;2.47;;;;;;;;;;5128460;28;20016;-78
2021/11/30 04:58:51;;;;;;;3.40;3.03;;;;;;;;;;5128303;28;20016;-79
2021/11/30 05:01:18;;;;;;;4.00;3.60;;;;;;;;;;5128188;28;20019;-78
2021/11/30 05:03:45;;;;;;;5.13;4.07;;;;;;;;;;5133112;27;20008;-77
2021/11/30 05:06:12;;;;;;;5.88;4.65;;;;;;;;;;5129475;27;20072;-78
2021/11/30 05:08:38;;;;;;;6.40;5.68;;;;;;;;;;5148595;27;20051;-78
2021/11/30 05:11:04;;;;;;;5.95;4.95;;;;;;;;;;5147939;27;20102;-77
2021/11/30 05:13:30;;;;;;;6.60;5.15;;;;;;;;;;5129909;28;20030;-79
2021/11/30 05:15:57;;;;;;;6.50;4.45;;;;;;;;;;5130107;27;20090;-77
2021/11/30 05:18:26;;;;;;;6.70;3.97;;;;;;;;;;5131001;27;20033;-81
2021/11/30 05:20:53;;;;;;;6.97;3.80;;;;;;;;;;5130169;27;20011;-79
2021/11/30 05:23:27;;;;;;;5.45;2.88;;;;;;;;;;5148444;27;20019;-78
2021/11/30 05:25:54;;;;;;;3.80;2.47;;;;;;;;;;5148220;27;20030;-77
2021/11/30 05:28:22;;;;;;;4.32;2.45;;;;;;;;;;5148550;27;20023;-81
2021/11/30 05:30:48;;;;;;;2.78;2.00;;;;;;;;;;5129696;27;20064;-77
2021/11/30 05:33:14;;;;;;;3.63;1.90;;;;;;;;;;5148420;27;20076;-77
2021/11/30 05:35:42;;;;;;;2.38;2.10;;;;;;;;;;5147532;27;20043;-79
2021/11/30 05:38:08;;;;;;;2.80;2.40;;;;;;;;;;5148025;27;20075;-77
2021/11/30 05:40:34;;;;;;;3.90;2.10;;;;;;;;;;5149108;27;20027;-76
2021/11/30 05:43:00;;;;;;;3.47;1.92;;;;;;;;;;5129280;28;20092;-77
2021/11/30 05:45:26;;;;;;;3.45;2.25;;;;;;;;;;5148102;28;20019;-76
2021/11/30 05:47:52;;;;;;;3.88;2.10;;;;;;;;;;5147826;28;20023;-77
2021/11/30 05:50:19;;;;;;;2.88;2.10;;;;;;;;;;5147709;27;20031;-76
2021/11/30 05:52:45;;;;;;;4.63;2.33;;;;;;;;;;5130667;28;20023;-78
2021/11/30 05:55:11;;;;;;;3.80;2.65;;;;;;;;;;5147987;28;20053;-77
2021/11/30 05:57:38;;;;;;;3.65;2.33;;;;;;;;;;5130261;28;20026;-78
2021/11/30 06:00:05;;;;;;;4.03;2.72;;;;;;;;;;5129820;28;20026;-76
2021/11/30 06:02:38;;;;;;;3.78;2.50;;;;;;;;;;5129683;28;20019;-79
2021/11/30 06:05:05;;;;;;;5.18;2.75;;;;;;;;;;5148189;28;20043;-78
2021/11/30 06:07:31;;;;;;;7.43;3.28;;;;;;;;;;5147702;28;20078;-77
2021/11/30 06:09:57;;;;;;;7.60;3.33;;;;;;;;;;5147494;28;20523;-78
2021/11/30 06:12:23;;;;;;;5.68;3.35;;;;;;;;;;5129463;28;20064;-77
2021/11/30 06:14:49;;;;;;;5.70;3.45;;;;;;;;;;5129322;28;20030;-78
2021/11/30 06:17:15;;;;;;;6.05;3.28;;;;;;;;;;5129056;28;20023;-78
2021/11/30 06:19:41;;;;;;;8.82;4.63;;;;;;;;;;5147122;28;20023;-77
2021/11/30 06:22:08;;;;;;;5.90;4.07;;;;;;;;;;5129314;28;20034;-77
2021/11/30 06:24:34;;;;;;;5.90;3.17;;;;;;;;;;5147724;28;20023;-78
2021/11/30 06:27:00;;;;;;;5.75;3.92;;;;;;;;;;5129270;28;20019;-78
2021/11/30 06:29:26;;;;;;;4.22;3.05;;;;;;;;;;5126766;28;20051;-77
2021/11/30 06:31:52;;;;;;;4.35;3.17;;;;;;;;;;5125936;28;20016;-77
2021/11/30 06:34:18;;;;;;;7.43;3.08;;;;;;;;;;5125069;28;20026;-77
2021/11/30 06:36:44;;;;;;;5.00;2.88;;;;;;;;;;5124719;28;20135;-78
2021/11/30 06:39:10;;;;;;;4.10;2.75;;;;;;;;;;5125777;28;20024;-78
2021/11/30 06:41:36;;;;;;;4.35;2.65;;;;;;;;;;5126791;28;20046;-77
2021/11/30 06:44:02;;;;;;;4.38;2.17;;;;;;;;;;5126034;28;20032;-77
2021/11/30 06:46:29;;;;;;;3.55;2.13;;;;;;;;;;5126344;28;20027;-76
2021/11/30 06:48:55;;;;;;;2.03;1.80;;;;;;;;;;5124668;28;20035;-78
2021/11/30 06:51:21;;;;;;;2.50;1.75;;;;;;;;;;5125884;28;20028;-76
2021/11/30 06:53:47;;;;;;;4.40;2.03;;;;;;;;;;5106840;28;20444;-78
2021/11/30 06:56:13;;;;;;;3.47;2.10;;;;;;;;;;5108141;28;20045;-76
2021/11/30 06:58:39;;;;;;;3.63;2.60;;;;;;;;;;5125729;28;20020;-82
2021/11/30 07:01:07;;;;;;;2.58;2.13;;;;;;;;;;5108284;28;20020;-77
2021/11/30 07:03:33;;;;;;;4.68;3.08;;;;;;;;;;5135058;27;20022;-78
2021/11/30 07:06:09;;;;;;;3.85;2.15;;;;;;;;;;5131035;27;20047;-78
2021/11/30 07:13:59;;;;;;;3.80;2.50;;;;;;;;;;5127852;28;20027;-80
2021/11/30 07:16:28;;;;;;;3.28;2.28;;;;;;;;;;5133468;27;20074;-79
2021/11/30 07:18:55;;;;;;;3.55;2.35;;;;;;;;;;5130365;27;20024;-78
2021/11/30 07:21:21;;;;;;;3.35;2.40;;;;;;;;;;5149506;27;20020;-76
2021/11/30 07:23:47;;;;;;;4.45;3.20;;;;;;;;;;5151872;27;20022;-77
2021/11/30 07:26:14;;;;;;;7.50;3.15;;;;;;;;;;5131747;27;20114;-77
2021/11/30 07:28:40;;;;;;;5.65;3.67;;;;;;;;;;5148380;27;20049;-77
2021/11/30 07:31:10;;;;;;;7.95;3.35;;;;;;;;;;5130998;27;20023;-79
2021/11/30 07:33:38;;;;;;;7.35;4.45;;;;;;;;;;5146223;27;20515;-77
2021/11/30 07:36:05;;;;;;;5.25;3.80;;;;;;;;;;5140371;27;20043;-77
2021/11/30 07:38:31;;;;;;;6.05;3.53;;;;;;;;;;5130655;27;20027;-75
2021/11/30 07:40:57;;;;;;;6.43;3.97;;;;;;;;;;5128846;27;20079;-79
2021/11/30 07:43:23;;;;;;;5.03;3.75;;;;;;;;;;5130416;27;20043;-76
2021/11/30 07:45:49;;;;;;;5.38;4.13;;;;;;;;;;5147893;27;20035;-81
2021/11/30 07:48:17;;;;;;;4.95;3.90;;;;;;;;;;5147353;27;20051;-77
2021/11/30 07:50:43;;;;;;;3.10;2.38;;;;;;;;;;5149334;27;20057;-79
2021/11/30 07:53:09;;;;;;;3.10;2.42;;;;;;;;;;5130626;27;20027;-79
2021/11/30 07:55:36;;;;;;;3.65;2.55;;;;;;;;;;5147125;27;20030;-80
2021/11/30 07:58:06;;;;;;;3.75;2.70;;;;;;;;;;5119647;27;20019;-79
2021/11/30 08:00:32;;;;;;;4.00;2.78;;;;;;;;;;5135536;27;20030;-77
2021/11/30 08:02:59;;;;;;;4.40;2.53;;;;;;;;;;5131762;27;20081;-79
2021/11/30 08:05:25;;;;;;;4.20;2.30;;;;;;;;;;5147076;27;20016;-77
2021/11/30 08:07:51;;;;;;;2.50;2.20;;;;;;;;;;5146432;27;20051;-79
2021/11/30 08:10:19;;;;;;;3.38;2.70;;;;;;;;;;5146740;27;20027;-76
2021/11/30 08:12:46;;;;;;;1.90;1.77;;;;;;;;;;5127781;27;20401;-77
2021/11/30 08:15:13;;;;;;;3.15;2.17;;;;;;;;;;5147958;27;20030;-78
2021/11/30 08:17:39;;;;;;;3.58;2.30;;;;;;;;;;5136835;27;20088;-78
2021/11/30 08:20:05;;;;;;;4.00;2.20;;;;;;;;;;5129651;27;20079;-78
2021/11/30 08:22:32;;;;;;;2.42;1.83;;;;;;;;;;5136285;27;20492;-78
2021/11/30 08:24:58;;;;;;;2.53;1.90;;;;;;;;;;5127763;27;20107;-77
2021/11/30 08:27:24;;;;;;;4.60;2.40;;;;;;;;;;5147159;27;20031;-81
2021/11/30 08:29:50;;;;;;;2.97;2.35;;;;;;;;;;5122309;28;20051;-80
2021/11/30 08:32:22;;;;;;;3.97;2.60;;;;;;;;;;5108945;28;20165;-78
2021/11/30 08:34:49;;;;;;;3.83;2.75;;;;;;;;;;5126174;28;20019;-78
2021/11/30 08:37:15;;;;;;;3.15;2.25;;;;;;;;;;5138190;27;20046;-80
2021/11/30 08:39:41;;;;;;;2.50;1.98;;;;;;;;;;5147030;27;20022;-80
2021/11/30 08:42:08;;;;;;;4.38;2.47;;;;;;;;;;5130047;27;20024;-79
2021/11/30 08:44:35;;;;;;;4.03;2.80;;;;;;;;;;5131120;27;20027;-78
2021/11/30 08:47:01;;;;;;;6.07;3.22;;;;;;;;;;5131866;27;20023;-78
2021/11/30 08:49:27;;;;;;;7.78;3.47;;;;;;;;;;5116123;28;20020;-79
2021/11/30 08:51:56;;;;;;;7.57;4.53;;;;;;;;;;5127600;27;20039;-79
2021/11/30 08:54:22;;;;;;;6.10;3.63;;;;;;;;;;5148310;27;20015;-78
2021/11/30 08:56:48;;;;;;;6.40;3.92;;;;;;;;;;5142887;27;20032;-77
2021/11/30 08:59:14;;;;;;;7.38;4.78;;;;;;;;;;5129323;27;20137;-77
2021/11/30 09:01:43;;;;;;;7.22;3.63;;;;;;;;;;5128001;27;20027;-78
2021/11/30 09:04:09;;;;;;;5.63;3.17;;;;;;;;;;5134668;27;20099;-79
2021/11/30 09:06:36;;;;;;;4.07;2.67;;;;;;;;;;5142353;27;20062;-80
2021/11/30 09:09:03;;;;;;;3.10;2.20;;;;;;;;;;5129962;27;20023;-78
2021/11/30 09:11:29;;;;;;;2.88;2.05;;;;;;;;;;5145079;27;20032;-78
2021/11/30 09:13:58;;;;;;;4.03;2.75;;;;;;;;;;5137758;27;20023;-78
2021/11/30 09:16:24;;;;;;;7.63;3.60;;;;;;;;;;5143618;27;20019;-77
2021/11/30 09:18:51;;;;;;;6.53;3.35;;;;;;;;;;5143944;27;20046;-79
2021/11/30 09:21:17;;;;;;;8.52;3.95;;;;;;;;;;5125801;27;20015;-78
2021/11/30 09:23:44;;;;;;;5.25;3.25;;;;;;;;;;5113597;28;20043;-78
2021/11/30 09:26:10;;;;;;;6.30;3.65;;;;;;;;;;5126863;27;20015;-78
2021/11/30 09:28:37;;;;;;;4.85;2.45;;;;;;;;;;5128342;27;20020;-79
2021/11/30 09:31:04;;;;;;;5.85;3.03;;;;;;;;;;5139477;27;20381;-78
2021/11/30 09:33:30;;;;;;;5.53;3.20;;;;;;;;;;5113594;27;20033;-77
2021/11/30 09:35:56;;;;;;;6.53;3.10;;;;;;;;;;5114499;27;20069;-78
2021/11/30 09:38:22;;;;;;;5.78;3.40;;;;;;;;;;5122068;28;20104;-77
2021/11/30 09:40:57;;;;;;;6.45;3.70;;;;;;;;;;5152385;27;20023;-77
2021/11/30 09:43:23;;;;;;;7.22;4.28;;;;;;;;;;5148129;27;20008;-77
2021/11/30 09:45:49;;;;;;;7.22;3.22;;;;;;;;;;5147578;27;20027;-78
2021/11/30 09:48:15;;;;;;;7.20;3.72;;;;;;;;;;5147477;28;20381;-78
2021/11/30 09:50:42;;;;;;;5.28;3.33;;;;;;;;;;5148699;28;20027;-78
2021/11/30 09:53:09;;;;;;;6.82;4.03;;;;;;;;;;5148592;28;20054;-76
2021/11/30 09:55:37;;;;;;;6.13;3.58;;;;;;;;;;5128902;27;20019;-80
2021/11/30 09:58:03;;;;;;;6.30;3.83;;;;;;;;;;5124334;28;20031;-77
2021/11/30 10:00:29;;;;;;;5.78;3.88;;;;;;;;;;5133722;27;20489;-77
2021/11/30 10:02:56;;;;;;;5.45;3.95;;;;;;;;;;5135131;28;20015;-79
2021/11/30 10:05:22;;;;;;;5.05;2.90;;;;;;;;;;5111644;28;20028;-77
2021/11/30 10:07:51;;;;;;;3.67;2.90;;;;;;;;;;5130509;28;20038;-78
2021/11/30 10:10:20;;;;;;;4.68;2.80;;;;;;;;;;5134332;27;20043;-81
2021/11/30 10:12:54;;;;;;;3.45;2.95;;;;;;;;;;5141930;27;20054;-78
2021/11/30 10:15:20;;;;;;;4.68;3.58;;;;;;;;;;5117987;28;20027;-78
2021/11/30 10:17:46;;;;;;;4.30;2.70;;;;;;;;;;5146459;28;20050;-77
2021/11/30 10:20:13;;;;;;;5.80;2.80;;;;;;;;;;5144283;28;20019;-78
2021/11/30 10:22:54;;;;;;;4.38;2.80;;;;;;;;;;5145447;27;20026;-77
2021/11/30 10:25:26;;;;;;;2.65;1.80;;;;;;;;;;5111205;28;20019;-78
2021/11/30 10:28:00;;;;;;;1.70;1.60;;;;;;;;;;5137225;27;20032;-80
2021/11/30 10:30:27;;;;;;;2.42;1.55;;;;;;;;;;5140682;28;20381;-77
2021/11/30 10:32:55;;;;;;;1.52;1.42;;;;;;;;;;5124005;28;20119;-78
2021/11/30 10:35:25;;;;;;;2.08;1.75;;;;;;;;;;5123811;27;20055;-78
2021/11/30 10:37:51;;;;;;;2.75;1.77;;;;;;;;;;5139420;27;20020;-77
2021/11/30 10:40:26;;;;;;;2.05;1.70;;;;;;;;;;5151169;27;20030;-77
2021/11/30 10:43:00;;;;;;;2.67;1.80;;;;;;;;;;5130346;27;20051;-77
2021/11/30 10:45:31;;;;;;;2.10;1.75;;;;;;;;;;5149000;27;20023;-78
2021/11/30 10:48:09;;;;;;;2.92;1.80;;;;;;;;;;5129294;27;20028;-79
2021/11/30 10:50:40;;;;;;;3.28;1.80;;;;;;;;;;5119636;27;20114;-77
2021/11/30 10:53:16;;;;;;;2.03;1.80;;;;;;;;;;5130248;27;20027;-78
2021/11/30 10:55:50;;;;;;;2.80;2.00;;;;;;;;;;5147112;27;20020;-78
2021/11/30 10:58:20;;;;;;;4.47;1.90;;;;;;;;;;5127699;27;20019;-79
2021/11/30 11:00:46;;;;;;;2.47;1.75;;;;;;;;;;5148317;27;20015;-77
2021/11/30 11:03:17;;;;;;;3.17;2.38;;;;;;;;;;5130530;27;20515;-77
2021/11/30 11:05:45;;;;;;;3.22;2.00;;;;;;;;;;5131045;27;20035;-77
2021/11/30 11:08:18;;;;;;;2.10;1.90;;;;;;;;;;5129762;27;20031;-77
2021/11/30 11:11:00;;;;;;;3.53;1.90;;;;;;;;;;5149514;27;20027;-76
2021/11/30 11:13:37;;;;;;;2.63;2.13;;;;;;;;;;5114679;28;20034;-79
2021/11/30 11:16:05;;;;;;;1.90;1.80;;;;;;;;;;5124938;27;20095;-79
2021/11/30 11:18:31;;;;;;;2.60;2.10;;;;;;;;;;5143344;27;20362;-78
2021/11/30 11:21:09;;;;;;;2.50;2.10;;;;;;;;;;5130836;27;20076;-76
2021/11/30 11:23:35;;;;;;;2.83;2.13;;;;;;;;;;5124583;27;20015;-78
2021/11/30 11:26:40;;;;;;;3.13;1.90;;;;;;;;;;5143809;27;20051;-78
2021/11/30 11:29:07;;;;;;;2.65;2.10;;;;;;;;;;5040754;28;20030;-77
2021/11/30 11:31:34;;;;;;;4.28;2.85;;;;;;;;;;5128059;27;20027;-80
2021/11/30 11:34:01;;;;;;;2.83;1.80;;;;;;;;;;5129425;27;20039;-78
2021/11/30 11:36:27;;;;;;;2.75;2.20;;;;;;;;;;5144864;27;20035;-77
2021/11/30 11:39:04;;;;;;;2.10;1.60;;;;;;;;;;5144304;27;20447;-79
2021/11/30 11:41:30;;;;;;;2.10;1.90;;;;;;;;;;5124329;27;20015;-75
2021/11/30 11:43:57;;;;;;;1.73;1.63;;;;;;;;;;5125856;27;20460;-78
2021/11/30 11:46:24;;;;;;;1.90;1.70;;;;;;;;;;5110941;28;20032;-77
2021/11/30 11:48:56;;;;;;;3.00;1.88;;;;;;;;;;5144288;27;20474;-78
2021/11/30 11:51:22;;;;;;;2.50;1.80;;;;;;;;;;5146128;27;20016;-78
2021/11/30 11:53:51;;;;;;;3.42;1.90;;;;;;;;;;5116192;27;20443;-77
2021/11/30 11:56:17;;;;;;;3.35;1.90;;;;;;;;;;5128699;27;20539;-76
2021/11/30 11:58:45;;;;;;;2.10;1.90;;;;;;;;;;5132013;27;20434;-77
2021/11/30 12:01:15;;;;;;;1.70;1.60;;;;;;;;;;5126339;27;20015;-77
2021/11/30 12:04:01;;;;;;;3.20;1.75;;;;;;;;;;5142754;27;20027;-78
2021/11/30 12:06:30;;;;;;;1.98;1.60;;;;;;;;;;5111055;27;20387;-78
2021/11/30 12:09:10;;;;;;;1.80;1.70;;;;;;;;;;5140405;27;20114;-77
2021/11/30 12:11:37;;;;;;;1.60;1.50;;;;;;;;;;5119629;27;20023;-78
2021/11/30 12:14:10;;;;;;;3.30;2.00;;;;;;;;;;5131205;27;20031;-77
2021/11/30 12:16:55;;;;;;;1.75;1.65;;;;;;;;;;5112499;27;20024;-77
2021/11/30 12:19:25;;;;;;;2.95;1.80;;;;;;;;;;5126319;27;20386;-77
2021/11/30 12:22:00;;;;;;;2.40;1.90;;;;;;;;;;5135511;27;20027;-79
2021/11/30 12:24:34;;;;;;;1.80;1.60;;;;;;;;;;5119314;27;20031;-80
2021/11/30 12:27:00;;;;;;;1.70;1.60;;;;;;;;;;5132368;27;20027;-78
2021/11/30 12:29:29;;;;;;;1.98;1.77;;;;;;;;;;5124869;27;20027;-76
2021/11/30 12:31:56;;;;;;;2.13;1.90;;;;;;;;;;5138454;27;20098;-77
2021/11/30 12:34:39;;;;;;;2.47;1.60;;;;;;;;;;5145285;27;20099;-77
2021/11/30 12:37:13;;;;;;;1.60;1.50;;;;;;;;;;5145435;27;20044;-76
2021/11/30 12:39:57;;;;;;;1.70;1.60;;;;;;;;;;5137077;27;20015;-76
2021/11/30 12:42:23;;;;;;;1.75;1.65;;;;;;;;;;5123947;27;20022;-79
2021/11/30 12:44:50;;;;;;;2.60;1.65;;;;;;;;;;5138023;27;20029;-77
2021/11/30 12:47:20;;;;;;;1.75;1.65;;;;;;;;;;5109266;28;20024;-76
2021/11/30 12:49:46;;;;;;;1.70;1.60;;;;;;;;;;5124329;28;20030;-77
2021/11/30 12:52:15;;;;;;;1.50;1.40;;;;;;;;;;5123507;28;20111;-77
2021/11/30 12:54:50;;;;;;;1.58;1.48;;;;;;;;;;5122429;27;20045;-78
2021/11/30 12:57:36;;;;;;;2.25;1.77;;;;;;;;;;5133663;27;20473;-79
2021/11/30 13:00:11;;;;;;;1.70;1.60;;;;;;;;;;5130257;27;20038;-78
2021/11/30 13:02:41;;;;;;;4.95;1.80;;;;;;;;;;5126142;27;20420;-79
2021/11/30 13:05:11;;;;;;;2.42;1.63;;;;;;;;;;5137155;27;20457;-79
2021/11/30 13:07:57;;;;;;;4.63;2.35;;;;;;;;;;5162599;27;20500;-76
2021/11/30 13:10:29;;;;;;;2.03;1.70;;;;;;;;;;5154430;27;20084;-75
2021/11/30 13:12:59;;;;;;;4.68;3.30;;;;;;;;;;5122980;28;20355;-77
2021/11/30 13:15:25;;;;;;;2.42;1.80;;;;;;;;;;5123850;28;20028;-78
2021/11/30 13:17:52;;;;;;;2.75;2.45;;;;;;;;;;5123110;28;20028;-77
2021/11/30 13:20:20;;;;;;;3.00;2.70;;;;;;;;;;5122209;28;20027;-78
2021/11/30 13:22:47;;;;;;;2.83;2.10;;;;;;;;;;5121021;28;20019;-75
2021/11/30 13:25:19;;;;;;;2.67;2.30;;;;;;;;;;5126415;27;20019;-77
2021/11/30 13:27:59;;;;;;;2.20;2.00;;;;;;;;;;5137948;27;20378;-78
2021/11/30 13:30:51;;;;;;;2.50;2.08;;;;;;;;;;5126023;27;20098;-77
2021/11/30 13:33:24;;;;;;;2.20;1.90;;;;;;;;;;5145969;27;20169;-77
2021/11/30 13:35:55;;;;;;;2.03;1.80;;;;;;;;;;5122647;27;20048;-78
2021/11/30 13:38:27;;;;;;;2.00;1.80;;;;;;;;;;5133522;27;20043;-76
2021/11/30 13:40:53;;;;;;;2.25;1.90;;;;;;;;;;5122764;28;20053;-76
2021/11/30 13:43:29;;;;;;;2.58;1.70;;;;;;;;;;5121249;28;20043;-77
2021/11/30 13:46:00;;;;;;;2.13;1.88;;;;;;;;;;5133563;27;20096;-77
2021/11/30 13:48:27;;;;;;;1.92;1.73;;;;;;;;;;5133356;27;20406;-76
2021/11/30 13:50:55;;;;;;;3.35;1.90;;;;;;;;;;5140508;28;20023;-78
2021/11/30 13:53:24;;;;;;;2.25;1.80;;;;;;;;;;5141130;28;20015;-79
2021/11/30 13:55:56;;;;;;;2.10;1.90;;;;;;;;;;5127959;28;20038;-77
2021/11/30 13:58:41;;;;;;;1.85;1.52;;;;;;;;;;5126975;28;20028;-76
2021/11/30 14:01:18;;;;;;;1.80;1.70;;;;;;;;;;5136348;27;20506;-78
2021/11/30 14:03:53;;;;;;;2.95;1.73;;;;;;;;;;5123686;28;20024;-78
2021/11/30 14:06:19;;;;;;;2.05;1.70;;;;;;;;;;5121755;28;20023;-77
2021/11/30 14:08:45;;;;;;;2.17;1.80;;;;;;;;;;5139024;28;20066;-77
2021/11/30 14:11:15;;;;;;;1.95;1.80;;;;;;;;;;5135942;27;20061;-78
2021/11/30 14:13:41;;;;;;;2.38;2.15;;;;;;;;;;5124653;27;20024;-76
2021/11/30 14:16:07;;;;;;;3.45;2.00;;;;;;;;;;5150151;27;20019;-78
2021/11/30 14:18:36;;;;;;;2.67;2.20;;;;;;;;;;5153351;27;20094;-77
2021/11/30 14:21:15;;;;;;;2.83;2.13;;;;;;;;;;5132035;27;20024;-78
2021/11/30 14:23:41;;;;;;;2.90;2.10;;;;;;;;;;5106258;28;20020;-77
2021/11/30 14:26:21;;;;;;;2.25;2.05;;;;;;;;;;5120626;27;20087;-76
2021/11/30 14:28:57;;;;;;;2.50;2.20;;;;;;;;;;5145568;27;20072;-77
2021/11/30 14:31:23;;;;;;;2.60;2.08;;;;;;;;;;5112327;27;20023;-78
2021/11/30 14:33:49;;;;;;;2.88;2.13;;;;;;;;;;5111396;28;20051;-76
2021/11/30 14:36:25;;;;;;;2.72;2.22;;;;;;;;;;5129451;28;20051;-75
2021/11/30 14:38:51;;;;;;;6.13;2.00;;;;;;;;;;5135298;27;20092;-76
2021/11/30 14:41:18;;;;;;;2.30;2.10;;;;;;;;;;5147300;27;20477;-78
2021/11/30 14:43:44;;;;;;;5.38;2.00;;;;;;;;;;5129270;27;20019;-78
2021/11/30 14:46:12;;;;;;;2.58;1.92;;;;;;;;;;5127969;27;20035;-77
2021/11/30 14:48:39;;;;;;;2.50;2.20;;;;;;;;;;5121357;28;20050;-75
2021/11/30 14:51:06;;;;;;;3.80;2.00;;;;;;;;;;5123928;28;20032;-78
2021/11/30 14:53:34;;;;;;;3.50;2.45;;;;;;;;;;5147608;27;20019;-79
2021/11/30 14:56:16;;;;;;;3.13;2.50;;;;;;;;;;5121449;27;20027;-75
2021/11/30 14:58:46;;;;;;;3.15;2.25;;;;;;;;;;5144508;27;20037;-78
2021/11/30 15:01:22;;;;;;;9.65;5.47;;;;;;;;;;5126068;27;20011;-77